sensor_id;sensor_type;location;lat;lon;timestamp;P1;durP1;ratioP1;P2;durP2;ratioP2
26062;SDS011;13837;48.562;12.108;2022-11-15T00:00:37;36.45;;;31.85;;
26062;SDS011;13837;48.562;12.108;2022-11-15T00:03:30;35.63;;;30.73;;
26062;SDS011;13837;48.562;12.108;2022-11-15T00:06:17;36.67;;;31.58;;
26062;SDS011;13837;48.562;12.108;2022-11-15T00:09:02;35.45;;;30.67;;
26062;SDS011;13837;48.562;12.108;2022-11-15T00:11:47;38.83;;;30.48;;
26062;SDS011;13837;48.562;12.108;2022-11-15T00:14:42;35.50;;;30.05;;
26062;SDS011;13837;48.562;12.108;2022-11-15T00:17:27;35.10;;;30.38;;
26062;SDS011;13837;48.562;12.108;2022-11-15T00:20:12;34.78;;;29.05;;
26062;SDS011;13837;48.562;12.108;2022-11-15T00:22:59;37.05;;;31.90;;
26062;SDS011;13837;48.562;12.108;2022-11-15T00:25:43;36.75;;;31.13;;
26062;SDS011;13837;48.562;12.108;2022-11-15T00:28:31;35.35;;;31.42;;
26062;SDS011;13837;48.562;12.108;2022-11-15T00:31:18;35.28;;;30.52;;
26062;SDS011;13837;48.562;12.108;2022-11-15T00:34:03;43.35;;;31.00;;
26062;SDS011;13837;48.562;12.108;2022-11-15T00:36:47;38.38;;;31.25;;
26062;SDS011;13837;48.562;12.108;2022-11-15T00:39:32;35.28;;;30.88;;
26062;SDS011;13837;48.562;12.108;2022-11-15T00:42:17;35.00;;;30.23;;
26062;SDS011;13837;48.562;12.108;2022-11-15T00:45:01;34.72;;;30.67;;
26062;SDS011;13837;48.562;12.108;2022-11-15T00:47:47;40.10;;;30.80;;
26062;SDS011;13837;48.562;12.108;2022-11-15T00:50:32;33.15;;;29.52;;
26062;SDS011;13837;48.562;12.108;2022-11-15T00:53:17;39.33;;;30.52;;
26062;SDS011;13837;48.562;12.108;2022-11-15T00:56:01;32.90;;;28.75;;
26062;SDS011;13837;48.562;12.108;2022-11-15T00:58:46;35.22;;;30.67;;
26062;SDS011;13837;48.562;12.108;2022-11-15T01:01:33;35.08;;;29.85;;
26062;SDS011;13837;48.562;12.108;2022-11-15T01:04:18;36.88;;;29.95;;
26062;SDS011;13837;48.562;12.108;2022-11-15T01:07:06;36.08;;;30.50;;
26062;SDS011;13837;48.562;12.108;2022-11-15T01:09:51;37.78;;;29.92;;
26062;SDS011;13837;48.562;12.108;2022-11-15T01:12:38;36.25;;;29.58;;
26062;SDS011;13837;48.562;12.108;2022-11-15T01:15:23;36.88;;;28.98;;
26062;SDS011;13837;48.562;12.108;2022-11-15T01:18:11;36.47;;;30.55;;
26062;SDS011;13837;48.562;12.108;2022-11-15T01:20:56;35.17;;;29.95;;
26062;SDS011;13837;48.562;12.108;2022-11-15T01:23:40;37.63;;;29.42;;
26062;SDS011;13837;48.562;12.108;2022-11-15T01:26:28;33.65;;;28.15;;
26062;SDS011;13837;48.562;12.108;2022-11-15T01:29:12;33.92;;;29.58;;
26062;SDS011;13837;48.562;12.108;2022-11-15T01:31:57;36.58;;;28.30;;
26062;SDS011;13837;48.562;12.108;2022-11-15T01:34:42;34.83;;;27.70;;
26062;SDS011;13837;48.562;12.108;2022-11-15T01:37:27;33.72;;;28.17;;
26062;SDS011;13837;48.562;12.108;2022-11-15T01:40:12;32.08;;;28.63;;
26062;SDS011;13837;48.562;12.108;2022-11-15T01:42:59;34.38;;;29.10;;
26062;SDS011;13837;48.562;12.108;2022-11-15T01:46:04;36.28;;;29.90;;
26062;SDS011;13837;48.562;12.108;2022-11-15T01:49:04;32.33;;;28.83;;
26062;SDS011;13837;48.562;12.108;2022-11-15T01:52:02;33.83;;;28.20;;
26062;SDS011;13837;48.562;12.108;2022-11-15T01:54:50;37.58;;;29.67;;
26062;SDS011;13837;48.562;12.108;2022-11-15T01:57:41;36.92;;;30.70;;
26062;SDS011;13837;48.562;12.108;2022-11-15T02:00:29;35.15;;;29.48;;
26062;SDS011;13837;48.562;12.108;2022-11-15T02:03:15;36.42;;;28.90;;
26062;SDS011;13837;48.562;12.108;2022-11-15T02:05:59;40.95;;;31.15;;
26062;SDS011;13837;48.562;12.108;2022-11-15T02:08:46;49.20;;;35.28;;
26062;SDS011;13837;48.562;12.108;2022-11-15T02:11:31;47.92;;;33.50;;
26062;SDS011;13837;48.562;12.108;2022-11-15T02:14:18;39.70;;;31.25;;
26062;SDS011;13837;48.562;12.108;2022-11-15T02:29:05;31.70;;;28.23;;
26062;SDS011;13837;48.562;12.108;2022-11-15T02:32:20;30.33;;;27.30;;
26062;SDS011;13837;48.562;12.108;2022-11-15T02:35:33;34.15;;;29.90;;
26062;SDS011;13837;48.562;12.108;2022-11-15T02:41:49;39.22;;;29.60;;
26062;SDS011;13837;48.562;12.108;2022-11-15T02:45:13;29.50;;;26.42;;
26062;SDS011;13837;48.562;12.108;2022-11-15T02:48:11;35.97;;;28.88;;
26062;SDS011;13837;48.562;12.108;2022-11-15T02:50:57;35.47;;;28.25;;
26062;SDS011;13837;48.562;12.108;2022-11-15T02:53:43;35.15;;;28.25;;
26062;SDS011;13837;48.562;12.108;2022-11-15T02:56:27;30.35;;;27.10;;
26062;SDS011;13837;48.562;12.108;2022-11-15T03:11:15;29.70;;;26.50;;
26062;SDS011;13837;48.562;12.108;2022-11-15T03:14:13;30.40;;;27.52;;
26062;SDS011;13837;48.562;12.108;2022-11-15T03:20:06;31.63;;;27.77;;
26062;SDS011;13837;48.562;12.108;2022-11-15T03:22:52;33.63;;;28.20;;
26062;SDS011;13837;48.562;12.108;2022-11-15T03:25:41;31.63;;;28.35;;
26062;SDS011;13837;48.562;12.108;2022-11-15T03:28:32;31.13;;;27.70;;
26062;SDS011;13837;48.562;12.108;2022-11-15T03:34:47;30.67;;;27.38;;
26062;SDS011;13837;48.562;12.108;2022-11-15T03:37:40;43.53;;;30.00;;
26062;SDS011;13837;48.562;12.108;2022-11-15T03:43:28;32.75;;;28.02;;
26062;SDS011;13837;48.562;12.108;2022-11-15T03:46:19;33.78;;;28.58;;
26062;SDS011;13837;48.562;12.108;2022-11-15T03:52:11;29.98;;;26.80;;
26062;SDS011;13837;48.562;12.108;2022-11-15T03:54:56;30.70;;;27.60;;
26062;SDS011;13837;48.562;12.108;2022-11-15T03:57:41;30.85;;;27.60;;
26062;SDS011;13837;48.562;12.108;2022-11-15T04:00:31;31.45;;;28.23;;
26062;SDS011;13837;48.562;12.108;2022-11-15T04:03:18;37.50;;;30.23;;
26062;SDS011;13837;48.562;12.108;2022-11-15T04:06:02;35.72;;;30.48;;
26062;SDS011;13837;48.562;12.108;2022-11-15T04:08:49;37.72;;;30.38;;
26062;SDS011;13837;48.562;12.108;2022-11-15T04:11:36;31.50;;;28.25;;
26062;SDS011;13837;48.562;12.108;2022-11-15T04:14:21;31.70;;;26.75;;
26062;SDS011;13837;48.562;12.108;2022-11-15T04:17:06;29.60;;;26.50;;
26062;SDS011;13837;48.562;12.108;2022-11-15T04:19:53;30.02;;;27.10;;
26062;SDS011;13837;48.562;12.108;2022-11-15T04:22:57;31.13;;;28.02;;
26062;SDS011;13837;48.562;12.108;2022-11-15T04:26:03;29.20;;;26.30;;
26062;SDS011;13837;48.562;12.108;2022-11-15T04:28:49;29.67;;;26.33;;
26062;SDS011;13837;48.562;12.108;2022-11-15T04:31:52;29.67;;;26.65;;
26062;SDS011;13837;48.562;12.108;2022-11-15T04:34:41;31.08;;;26.75;;
26062;SDS011;13837;48.562;12.108;2022-11-15T04:37:26;30.08;;;26.90;;
26062;SDS011;13837;48.562;12.108;2022-11-15T04:40:13;29.83;;;26.67;;
26062;SDS011;13837;48.562;12.108;2022-11-15T04:42:58;29.05;;;25.77;;
26062;SDS011;13837;48.562;12.108;2022-11-15T04:45:43;29.67;;;25.35;;
26062;SDS011;13837;48.562;12.108;2022-11-15T04:48:28;31.58;;;27.58;;
26062;SDS011;13837;48.562;12.108;2022-11-15T04:51:13;33.47;;;27.40;;
26062;SDS011;13837;48.562;12.108;2022-11-15T04:53:57;30.95;;;27.13;;
26062;SDS011;13837;48.562;12.108;2022-11-15T04:56:42;29.08;;;26.08;;
26062;SDS011;13837;48.562;12.108;2022-11-15T04:59:27;30.88;;;27.48;;
26062;SDS011;13837;48.562;12.108;2022-11-15T05:02:11;29.85;;;26.65;;
26062;SDS011;13837;48.562;12.108;2022-11-15T05:04:56;32.72;;;27.25;;
26062;SDS011;13837;48.562;12.108;2022-11-15T05:07:41;33.55;;;28.17;;
26062;SDS011;13837;48.562;12.108;2022-11-15T05:10:30;34.58;;;28.98;;
26062;SDS011;13837;48.562;12.108;2022-11-15T05:13:17;30.67;;;27.35;;
26062;SDS011;13837;48.562;12.108;2022-11-15T05:16:11;31.05;;;27.48;;
26062;SDS011;13837;48.562;12.108;2022-11-15T05:18:59;32.55;;;27.33;;
26062;SDS011;13837;48.562;12.108;2022-11-15T05:21:44;31.33;;;28.05;;
26062;SDS011;13837;48.562;12.108;2022-11-15T05:24:29;31.83;;;28.02;;
26062;SDS011;13837;48.562;12.108;2022-11-15T05:27:13;34.83;;;29.50;;
26062;SDS011;13837;48.562;12.108;2022-11-15T05:29:58;32.58;;;28.15;;
26062;SDS011;13837;48.562;12.108;2022-11-15T05:32:45;46.58;;;29.48;;
26062;SDS011;13837;48.562;12.108;2022-11-15T05:35:31;42.22;;;30.30;;
26062;SDS011;13837;48.562;12.108;2022-11-15T05:38:20;38.85;;;29.83;;
26062;SDS011;13837;48.562;12.108;2022-11-15T05:41:07;41.20;;;30.08;;
26062;SDS011;13837;48.562;12.108;2022-11-15T05:43:52;30.48;;;25.10;;
26062;SDS011;13837;48.562;12.108;2022-11-15T05:46:37;28.77;;;25.15;;
26062;SDS011;13837;48.562;12.108;2022-11-15T05:49:25;49.13;;;29.80;;
26062;SDS011;13837;48.562;12.108;2022-11-15T05:52:14;36.35;;;27.88;;
26062;SDS011;13837;48.562;12.108;2022-11-15T05:55:02;34.55;;;26.90;;
26062;SDS011;13837;48.562;12.108;2022-11-15T05:57:48;72.60;;;29.52;;
26062;SDS011;13837;48.562;12.108;2022-11-15T06:00:33;35.75;;;27.77;;
26062;SDS011;13837;48.562;12.108;2022-11-15T06:03:18;34.10;;;27.10;;
26062;SDS011;13837;48.562;12.108;2022-11-15T06:06:04;37.08;;;28.80;;
26062;SDS011;13837;48.562;12.108;2022-11-15T06:08:49;39.03;;;28.83;;
26062;SDS011;13837;48.562;12.108;2022-11-15T06:11:33;38.45;;;29.48;;
26062;SDS011;13837;48.562;12.108;2022-11-15T06:14:18;41.03;;;29.13;;
26062;SDS011;13837;48.562;12.108;2022-11-15T06:17:02;41.15;;;28.98;;
26062;SDS011;13837;48.562;12.108;2022-11-15T06:19:46;41.53;;;29.02;;
26062;SDS011;13837;48.562;12.108;2022-11-15T06:22:31;57.00;;;35.67;;
26062;SDS011;13837;48.562;12.108;2022-11-15T06:25:15;70.30;;;42.05;;
26062;SDS011;13837;48.562;12.108;2022-11-15T06:27:59;46.25;;;33.70;;
26062;SDS011;13837;48.562;12.108;2022-11-15T06:30:44;41.60;;;30.02;;
26062;SDS011;13837;48.562;12.108;2022-11-15T06:33:29;33.92;;;26.77;;
26062;SDS011;13837;48.562;12.108;2022-11-15T06:36:13;31.05;;;27.73;;
26062;SDS011;13837;48.562;12.108;2022-11-15T06:39:04;42.50;;;30.98;;
26062;SDS011;13837;48.562;12.108;2022-11-15T06:41:55;38.67;;;32.80;;
26062;SDS011;13837;48.562;12.108;2022-11-15T06:44:40;45.67;;;34.63;;
26062;SDS011;13837;48.562;12.108;2022-11-15T06:47:35;53.63;;;37.95;;
26062;SDS011;13837;48.562;12.108;2022-11-15T06:50:28;50.92;;;39.33;;
26062;SDS011;13837;48.562;12.108;2022-11-15T06:53:14;46.55;;;38.50;;
26062;SDS011;13837;48.562;12.108;2022-11-15T06:56:05;47.85;;;36.13;;
26062;SDS011;13837;48.562;12.108;2022-11-15T06:58:57;40.63;;;31.58;;
26062;SDS011;13837;48.562;12.108;2022-11-15T07:01:46;38.22;;;32.25;;
26062;SDS011;13837;48.562;12.108;2022-11-15T07:04:31;40.45;;;30.23;;
26062;SDS011;13837;48.562;12.108;2022-11-15T07:10:04;31.10;;;27.75;;
26062;SDS011;13837;48.562;12.108;2022-11-15T07:12:55;39.67;;;29.90;;
26062;SDS011;13837;48.562;12.108;2022-11-15T07:15:42;32.22;;;28.58;;
26062;SDS011;13837;48.562;12.108;2022-11-15T07:18:27;40.58;;;29.55;;
26062;SDS011;13837;48.562;12.108;2022-11-15T07:21:15;37.42;;;30.48;;
26062;SDS011;13837;48.562;12.108;2022-11-15T07:24:02;38.58;;;31.35;;
26062;SDS011;13837;48.562;12.108;2022-11-15T07:26:50;38.95;;;29.92;;
26062;SDS011;13837;48.562;12.108;2022-11-15T07:29:57;41.00;;;30.60;;
26062;SDS011;13837;48.562;12.108;2022-11-15T07:32:42;70.90;;;48.17;;
26062;SDS011;13837;48.562;12.108;2022-11-15T07:35:30;72.25;;;47.15;;
26062;SDS011;13837;48.562;12.108;2022-11-15T07:38:18;29.90;;;26.83;;
26062;SDS011;13837;48.562;12.108;2022-11-15T07:41:08;99.05;;;49.42;;
26062;SDS011;13837;48.562;12.108;2022-11-15T07:43:52;362.67;;;140.15;;
26062;SDS011;13837;48.562;12.108;2022-11-15T07:46:37;253.48;;;112.18;;
26062;SDS011;13837;48.562;12.108;2022-11-15T07:49:22;87.45;;;52.17;;
26062;SDS011;13837;48.562;12.108;2022-11-15T07:52:07;43.42;;;35.53;;
26062;SDS011;13837;48.562;12.108;2022-11-15T07:54:56;42.45;;;34.25;;
26062;SDS011;13837;48.562;12.108;2022-11-15T07:57:41;41.40;;;33.72;;
26062;SDS011;13837;48.562;12.108;2022-11-15T08:00:28;39.13;;;33.75;;
26062;SDS011;13837;48.562;12.108;2022-11-15T08:03:14;29.42;;;26.38;;
26062;SDS011;13837;48.562;12.108;2022-11-15T08:06:00;27.67;;;24.88;;
26062;SDS011;13837;48.562;12.108;2022-11-15T08:08:46;55.88;;;39.25;;
26062;SDS011;13837;48.562;12.108;2022-11-15T08:11:31;46.10;;;35.40;;
26062;SDS011;13837;48.562;12.108;2022-11-15T08:14:15;44.10;;;34.63;;
26062;SDS011;13837;48.562;12.108;2022-11-15T08:17:00;39.38;;;31.75;;
26062;SDS011;13837;48.562;12.108;2022-11-15T08:19:45;40.85;;;32.70;;
26062;SDS011;13837;48.562;12.108;2022-11-15T08:22:30;43.25;;;32.08;;
26062;SDS011;13837;48.562;12.108;2022-11-15T08:25:20;30.67;;;27.35;;
26062;SDS011;13837;48.562;12.108;2022-11-15T08:28:09;35.63;;;28.17;;
26062;SDS011;13837;48.562;12.108;2022-11-15T08:33:57;36.90;;;27.10;;
26062;SDS011;13837;48.562;12.108;2022-11-15T08:36:42;44.15;;;32.25;;
26062;SDS011;13837;48.562;12.108;2022-11-15T08:39:29;37.33;;;27.92;;
26062;SDS011;13837;48.562;12.108;2022-11-15T08:42:29;33.22;;;28.30;;
26062;SDS011;13837;48.562;12.108;2022-11-15T08:45:36;30.58;;;26.60;;
26062;SDS011;13837;48.562;12.108;2022-11-15T08:48:21;26.73;;;23.92;;
26062;SDS011;13837;48.562;12.108;2022-11-15T08:51:22;26.83;;;22.83;;
26062;SDS011;13837;48.562;12.108;2022-11-15T08:54:24;39.17;;;28.08;;
26062;SDS011;13837;48.562;12.108;2022-11-15T09:00:21;19.83;;;17.83;;
26062;SDS011;13837;48.562;12.108;2022-11-15T09:03:39;18.10;;;16.25;;
26062;SDS011;13837;48.562;12.108;2022-11-15T09:09:32;17.25;;;15.40;;
26062;SDS011;13837;48.562;12.108;2022-11-15T09:12:26;19.00;;;17.20;;
26062;SDS011;13837;48.562;12.108;2022-11-15T09:15:26;19.48;;;17.40;;
26062;SDS011;13837;48.562;12.108;2022-11-15T09:21:59;19.73;;;16.48;;
26062;SDS011;13837;48.562;12.108;2022-11-15T09:24:49;17.65;;;15.85;;
26062;SDS011;13837;48.562;12.108;2022-11-15T09:31:13;17.40;;;15.40;;
26062;SDS011;13837;48.562;12.108;2022-11-15T09:34:33;14.82;;;13.23;;
26062;SDS011;13837;48.562;12.108;2022-11-15T09:40:57;14.98;;;13.32;;
26062;SDS011;13837;48.562;12.108;2022-11-15T09:51:32;13.32;;;11.90;;
26062;SDS011;13837;48.562;12.108;2022-11-15T09:54:34;15.07;;;12.70;;
26062;SDS011;13837;48.562;12.108;2022-11-15T10:41:47;14.10;;;12.18;;
26062;SDS011;13837;48.562;12.108;2022-11-15T10:50:57;16.00;;;12.15;;
26062;SDS011;13837;48.562;12.108;2022-11-15T11:09:01;14.07;;;12.57;;
26062;SDS011;13837;48.562;12.108;2022-11-15T11:29:02;14.27;;;11.05;;
26062;SDS011;13837;48.562;12.108;2022-11-15T11:31:51;13.13;;;11.63;;
26062;SDS011;13837;48.562;12.108;2022-11-15T11:54:11;12.07;;;10.77;;
26062;SDS011;13837;48.562;12.108;2022-11-15T11:56:51;13.50;;;11.20;;
26062;SDS011;13837;48.562;12.108;2022-11-15T12:05:54;13.70;;;11.52;;
26062;SDS011;13837;48.562;12.108;2022-11-15T12:08:26;15.70;;;11.68;;
26062;SDS011;13837;48.562;12.108;2022-11-15T12:13:43;14.38;;;10.70;;
26062;SDS011;13837;48.562;12.108;2022-11-15T12:16:16;12.85;;;10.82;;
26062;SDS011;13837;48.562;12.108;2022-11-15T12:18:48;13.30;;;11.45;;
26062;SDS011;13837;48.562;12.108;2022-11-15T12:24:06;14.45;;;11.90;;
26062;SDS011;13837;48.562;12.108;2022-11-15T12:30:00;13.90;;;11.57;;
26062;SDS011;13837;48.562;12.108;2022-11-15T13:05:57;15.73;;;11.93;;
26062;SDS011;13837;48.562;12.108;2022-11-15T13:15:32;15.30;;;12.85;;
26062;SDS011;13837;48.562;12.108;2022-11-15T13:37:42;19.02;;;12.93;;
26062;SDS011;13837;48.562;12.108;2022-11-15T13:40:22;14.52;;;11.95;;
26062;SDS011;13837;48.562;12.108;2022-11-15T13:42:56;16.55;;;12.25;;
26062;SDS011;13837;48.562;12.108;2022-11-15T13:45:24;14.00;;;10.82;;
26062;SDS011;13837;48.562;12.108;2022-11-15T13:47:53;14.93;;;11.00;;
26062;SDS011;13837;48.562;12.108;2022-11-15T13:50:28;14.65;;;11.40;;
26062;SDS011;13837;48.562;12.108;2022-11-15T13:53:02;14.60;;;10.82;;
26062;SDS011;13837;48.562;12.108;2022-11-15T13:55:33;12.68;;;10.27;;
26062;SDS011;13837;48.562;12.108;2022-11-15T13:58:05;13.45;;;10.45;;
26062;SDS011;13837;48.562;12.108;2022-11-15T14:00:38;12.45;;;10.68;;
26062;SDS011;13837;48.562;12.108;2022-11-15T14:09:03;13.90;;;11.40;;
26062;SDS011;13837;48.562;12.108;2022-11-15T14:11:49;12.85;;;11.02;;
26062;SDS011;13837;48.562;12.108;2022-11-15T14:23:53;14.68;;;11.77;;
26062;SDS011;13837;48.562;12.108;2022-11-15T14:36:57;15.32;;;13.18;;
26062;SDS011;13837;48.562;12.108;2022-11-15T14:58:51;19.10;;;14.27;;
26062;SDS011;13837;48.562;12.108;2022-11-15T15:01:25;18.27;;;13.90;;
26062;SDS011;13837;48.562;12.108;2022-11-15T15:03:53;18.63;;;14.75;;
26062;SDS011;13837;48.562;12.108;2022-11-15T15:10:44;18.15;;;15.07;;
26062;SDS011;13837;48.562;12.108;2022-11-15T15:16:05;35.78;;;23.95;;
26062;SDS011;13837;48.562;12.108;2022-11-15T15:18:40;28.80;;;21.30;;
26062;SDS011;13837;48.562;12.108;2022-11-15T15:21:27;28.33;;;19.70;;
26062;SDS011;13837;48.562;12.108;2022-11-15T15:24:13;26.70;;;19.48;;
26062;SDS011;13837;48.562;12.108;2022-11-15T15:27:51;26.77;;;18.27;;
26062;SDS011;13837;48.562;12.108;2022-11-15T15:31:34;21.42;;;16.70;;
26062;SDS011;13837;48.562;12.108;2022-11-15T15:43:25;34.25;;;24.58;;
26062;SDS011;13837;48.562;12.108;2022-11-15T15:55:18;25.55;;;19.65;;
26062;SDS011;13837;48.562;12.108;2022-11-15T15:57:54;36.55;;;26.13;;
26062;SDS011;13837;48.562;12.108;2022-11-15T16:01:25;33.08;;;23.80;;
26062;SDS011;13837;48.562;12.108;2022-11-15T16:05:01;27.58;;;21.25;;
26062;SDS011;13837;48.562;12.108;2022-11-15T16:10:35;26.70;;;22.05;;
26062;SDS011;13837;48.562;12.108;2022-11-15T16:13:12;28.52;;;21.48;;
26062;SDS011;13837;48.562;12.108;2022-11-15T16:15:52;30.85;;;21.77;;
26062;SDS011;13837;48.562;12.108;2022-11-15T16:18:21;28.40;;;22.27;;
26062;SDS011;13837;48.562;12.108;2022-11-15T16:20:48;29.08;;;21.00;;
26062;SDS011;13837;48.562;12.108;2022-11-15T16:23:17;32.13;;;22.65;;
26062;SDS011;13837;48.562;12.108;2022-11-15T16:25:54;27.42;;;21.65;;
26062;SDS011;13837;48.562;12.108;2022-11-15T16:28:21;28.33;;;21.45;;
26062;SDS011;13837;48.562;12.108;2022-11-15T16:30:59;37.70;;;25.48;;
26062;SDS011;13837;48.562;12.108;2022-11-15T16:33:26;41.40;;;25.25;;
26062;SDS011;13837;48.562;12.108;2022-11-15T16:35:52;42.40;;;28.75;;
26062;SDS011;13837;48.562;12.108;2022-11-15T16:38:18;64.50;;;39.88;;
26062;SDS011;13837;48.562;12.108;2022-11-15T16:40:44;50.55;;;35.45;;
26062;SDS011;13837;48.562;12.108;2022-11-15T16:43:11;33.35;;;27.05;;
26062;SDS011;13837;48.562;12.108;2022-11-15T16:45:37;56.88;;;36.03;;
26062;SDS011;13837;48.562;12.108;2022-11-15T16:48:03;79.90;;;38.65;;
26062;SDS011;13837;48.562;12.108;2022-11-15T16:50:30;45.50;;;29.13;;
26062;SDS011;13837;48.562;12.108;2022-11-15T16:53:04;41.00;;;28.40;;
26062;SDS011;13837;48.562;12.108;2022-11-15T16:55:29;46.97;;;33.85;;
26062;SDS011;13837;48.562;12.108;2022-11-15T16:57:55;43.45;;;33.50;;
26062;SDS011;13837;48.562;12.108;2022-11-15T17:00:26;74.57;;;43.67;;
26062;SDS011;13837;48.562;12.108;2022-11-15T17:02:52;50.05;;;34.95;;
26062;SDS011;13837;48.562;12.108;2022-11-15T17:05:20;47.30;;;34.80;;
26062;SDS011;13837;48.562;12.108;2022-11-15T17:07:48;47.00;;;35.10;;
26062;SDS011;13837;48.562;12.108;2022-11-15T17:10:18;38.17;;;31.65;;
26062;SDS011;13837;48.562;12.108;2022-11-15T17:12:47;44.78;;;30.95;;
26062;SDS011;13837;48.562;12.108;2022-11-15T17:15:14;43.08;;;29.63;;
26062;SDS011;13837;48.562;12.108;2022-11-15T17:17:40;42.35;;;32.80;;
26062;SDS011;13837;48.562;12.108;2022-11-15T17:20:08;55.13;;;35.78;;
26062;SDS011;13837;48.562;12.108;2022-11-15T17:22:42;52.88;;;36.15;;
26062;SDS011;13837;48.562;12.108;2022-11-15T17:25:08;44.63;;;31.08;;
26062;SDS011;13837;48.562;12.108;2022-11-15T17:27:34;45.13;;;30.95;;
26062;SDS011;13837;48.562;12.108;2022-11-15T17:30:00;42.80;;;31.10;;
26062;SDS011;13837;48.562;12.108;2022-11-15T17:32:25;50.45;;;35.08;;
26062;SDS011;13837;48.562;12.108;2022-11-15T17:34:51;57.30;;;40.10;;
26062;SDS011;13837;48.562;12.108;2022-11-15T17:37:17;64.35;;;45.92;;
26062;SDS011;13837;48.562;12.108;2022-11-15T17:39:43;54.42;;;38.55;;
26062;SDS011;13837;48.562;12.108;2022-11-15T17:42:08;60.53;;;40.08;;
26062;SDS011;13837;48.562;12.108;2022-11-15T17:44:34;45.58;;;33.67;;
26062;SDS011;13837;48.562;12.108;2022-11-15T17:47:00;41.10;;;30.60;;
26062;SDS011;13837;48.562;12.108;2022-11-15T17:49:26;37.42;;;29.25;;
26062;SDS011;13837;48.562;12.108;2022-11-15T17:51:52;40.70;;;31.23;;
26062;SDS011;13837;48.562;12.108;2022-11-15T17:54:17;40.20;;;30.67;;
26062;SDS011;13837;48.562;12.108;2022-11-15T17:56:43;39.10;;;30.13;;
26062;SDS011;13837;48.562;12.108;2022-11-15T17:59:09;45.42;;;35.40;;
26062;SDS011;13837;48.562;12.108;2022-11-15T18:01:35;49.28;;;37.42;;
26062;SDS011;13837;48.562;12.108;2022-11-15T18:04:02;78.15;;;50.58;;
26062;SDS011;13837;48.562;12.108;2022-11-15T18:06:30;59.28;;;40.63;;
26062;SDS011;13837;48.562;12.108;2022-11-15T18:08:58;51.22;;;36.42;;
26062;SDS011;13837;48.562;12.108;2022-11-15T18:11:28;45.35;;;31.02;;
26062;SDS011;13837;48.562;12.108;2022-11-15T18:13:56;49.38;;;34.47;;
26062;SDS011;13837;48.562;12.108;2022-11-15T18:16:26;56.70;;;37.05;;
26062;SDS011;13837;48.562;12.108;2022-11-15T18:18:55;57.70;;;37.50;;
26062;SDS011;13837;48.562;12.108;2022-11-15T18:21:22;55.72;;;39.83;;
26062;SDS011;13837;48.562;12.108;2022-11-15T18:23:54;49.10;;;37.90;;
26062;SDS011;13837;48.562;12.108;2022-11-15T18:26:21;41.60;;;31.67;;
26062;SDS011;13837;48.562;12.108;2022-11-15T18:28:51;38.03;;;29.75;;
26062;SDS011;13837;48.562;12.108;2022-11-15T18:31:19;35.65;;;28.00;;
26062;SDS011;13837;48.562;12.108;2022-11-15T18:33:47;42.83;;;30.73;;
26062;SDS011;13837;48.562;12.108;2022-11-15T18:36:14;37.85;;;30.17;;
26062;SDS011;13837;48.562;12.108;2022-11-15T18:38:42;37.42;;;29.65;;
26062;SDS011;13837;48.562;12.108;2022-11-15T18:41:15;40.03;;;31.20;;
26062;SDS011;13837;48.562;12.108;2022-11-15T18:43:44;40.22;;;31.10;;
26062;SDS011;13837;48.562;12.108;2022-11-15T18:46:14;40.38;;;30.25;;
26062;SDS011;13837;48.562;12.108;2022-11-15T18:48:43;41.63;;;29.67;;
26062;SDS011;13837;48.562;12.108;2022-11-15T18:51:10;37.47;;;31.05;;
26062;SDS011;13837;48.562;12.108;2022-11-15T18:53:40;37.50;;;30.73;;
26062;SDS011;13837;48.562;12.108;2022-11-15T18:56:07;45.95;;;32.90;;
26062;SDS011;13837;48.562;12.108;2022-11-15T18:58:38;47.28;;;34.05;;
26062;SDS011;13837;48.562;12.108;2022-11-15T19:01:18;46.83;;;34.20;;
26062;SDS011;13837;48.562;12.108;2022-11-15T19:03:46;54.45;;;40.40;;
26062;SDS011;13837;48.562;12.108;2022-11-15T19:06:14;52.05;;;39.33;;
26062;SDS011;13837;48.562;12.108;2022-11-15T19:08:42;51.50;;;38.97;;
26062;SDS011;13837;48.562;12.108;2022-11-15T19:11:13;51.92;;;39.47;;
26062;SDS011;13837;48.562;12.108;2022-11-15T19:13:42;51.10;;;38.15;;
26062;SDS011;13837;48.562;12.108;2022-11-15T19:16:09;51.13;;;36.50;;
26062;SDS011;13837;48.562;12.108;2022-11-15T19:18:36;53.30;;;38.42;;
26062;SDS011;13837;48.562;12.108;2022-11-15T19:21:03;52.90;;;39.75;;
26062;SDS011;13837;48.562;12.108;2022-11-15T19:23:35;49.35;;;36.83;;
26062;SDS011;13837;48.562;12.108;2022-11-15T19:26:02;52.95;;;39.25;;
26062;SDS011;13837;48.562;12.108;2022-11-15T19:28:29;52.25;;;37.65;;
26062;SDS011;13837;48.562;12.108;2022-11-15T19:31:06;50.85;;;37.58;;
26062;SDS011;13837;48.562;12.108;2022-11-15T19:33:36;55.17;;;37.35;;
26062;SDS011;13837;48.562;12.108;2022-11-15T19:36:04;52.42;;;38.13;;
26062;SDS011;13837;48.562;12.108;2022-11-15T19:38:37;49.20;;;37.28;;
26062;SDS011;13837;48.562;12.108;2022-11-15T19:41:04;51.33;;;38.63;;
26062;SDS011;13837;48.562;12.108;2022-11-15T19:43:32;50.50;;;37.50;;
26062;SDS011;13837;48.562;12.108;2022-11-15T19:45:59;57.50;;;39.45;;
26062;SDS011;13837;48.562;12.108;2022-11-15T19:48:28;48.05;;;36.97;;
26062;SDS011;13837;48.562;12.108;2022-11-15T19:50:58;48.33;;;38.17;;
26062;SDS011;13837;48.562;12.108;2022-11-15T19:53:28;56.78;;;39.00;;
26062;SDS011;13837;48.562;12.108;2022-11-15T19:55:55;48.63;;;35.35;;
26062;SDS011;13837;48.562;12.108;2022-11-15T19:58:22;48.60;;;35.97;;
26062;SDS011;13837;48.562;12.108;2022-11-15T20:00:48;46.65;;;34.45;;
26062;SDS011;13837;48.562;12.108;2022-11-15T20:03:15;42.83;;;32.88;;
26062;SDS011;13837;48.562;12.108;2022-11-15T20:05:40;45.70;;;32.20;;
26062;SDS011;13837;48.562;12.108;2022-11-15T20:08:06;47.67;;;34.42;;
26062;SDS011;13837;48.562;12.108;2022-11-15T20:10:33;52.28;;;35.30;;
26062;SDS011;13837;48.562;12.108;2022-11-15T20:12:59;44.90;;;33.95;;
26062;SDS011;13837;48.562;12.108;2022-11-15T20:15:25;47.63;;;33.50;;
26062;SDS011;13837;48.562;12.108;2022-11-15T20:17:52;51.85;;;35.17;;
26062;SDS011;13837;48.562;12.108;2022-11-15T20:20:18;47.35;;;36.03;;
26062;SDS011;13837;48.562;12.108;2022-11-15T20:22:43;46.78;;;34.45;;
26062;SDS011;13837;48.562;12.108;2022-11-15T20:25:09;53.85;;;35.33;;
26062;SDS011;13837;48.562;12.108;2022-11-15T20:27:35;47.85;;;33.65;;
26062;SDS011;13837;48.562;12.108;2022-11-15T20:30:01;48.40;;;33.65;;
26062;SDS011;13837;48.562;12.108;2022-11-15T20:32:27;53.00;;;35.15;;
26062;SDS011;13837;48.562;12.108;2022-11-15T20:34:54;47.45;;;33.03;;
26062;SDS011;13837;48.562;12.108;2022-11-15T20:37:20;46.55;;;31.95;;
26062;SDS011;13837;48.562;12.108;2022-11-15T20:39:46;46.88;;;33.80;;
26062;SDS011;13837;48.562;12.108;2022-11-15T20:42:11;54.15;;;35.75;;
26062;SDS011;13837;48.562;12.108;2022-11-15T20:44:37;46.50;;;33.30;;
26062;SDS011;13837;48.562;12.108;2022-11-15T20:47:03;48.55;;;32.47;;
26062;SDS011;13837;48.562;12.108;2022-11-15T20:49:30;42.90;;;31.38;;